sensor_id;sensor_type;location;lat;lon;timestamp;P1;durP1;ratioP1;P2;durP2;ratioP2
4963;SDS011;2497;47.410;9.740;2022-08-25T00:02:08;6.90;;;3.73;;
4963;SDS011;2497;47.410;9.740;2022-08-25T00:04:36;4.07;;;3.03;;
4963;SDS011;2497;47.410;9.740;2022-08-25T00:07:04;4.07;;;3.30;;
4963;SDS011;2497;47.410;9.740;2022-08-25T00:09:33;5.70;;;2.80;;
4963;SDS011;2497;47.410;9.740;2022-08-25T00:12:01;4.17;;;3.00;;
4963;SDS011;2497;47.410;9.740;2022-08-25T00:14:30;4.03;;;3.30;;
4963;SDS011;2497;47.410;9.740;2022-08-25T00:16:58;8.30;;;4.93;;
4963;SDS011;2497;47.410;9.740;2022-08-25T00:19:36;7.23;;;4.30;;
4963;SDS011;2497;47.410;9.740;2022-08-25T00:22:04;6.53;;;3.10;;
4963;SDS011;2497;47.410;9.740;2022-08-25T00:24:34;4.13;;;3.23;;
4963;SDS011;2497;47.410;9.740;2022-08-25T00:27:02;3.60;;;3.07;;
4963;SDS011;2497;47.410;9.740;2022-08-25T00:29:30;3.67;;;2.43;;
4963;SDS011;2497;47.410;9.740;2022-08-25T00:32:02;4.30;;;3.70;;
4963;SDS011;2497;47.410;9.740;2022-08-25T00:34:32;3.33;;;3.03;;
4963;SDS011;2497;47.410;9.740;2022-08-25T00:37:01;5.10;;;3.27;;
4963;SDS011;2497;47.410;9.740;2022-08-25T00:39:31;3.30;;;3.00;;
4963;SDS011;2497;47.410;9.740;2022-08-25T00:42:01;6.17;;;3.90;;
4963;SDS011;2497;47.410;9.740;2022-08-25T00:44:30;8.33;;;3.37;;
4963;SDS011;2497;47.410;9.740;2022-08-25T00:46:59;12.30;;;3.47;;
4963;SDS011;2497;47.410;9.740;2022-08-25T00:49:29;6.70;;;3.30;;
4963;SDS011;2497;47.410;9.740;2022-08-25T00:52:00;7.47;;;3.57;;
4963;SDS011;2497;47.410;9.740;2022-08-25T00:54:31;7.00;;;3.27;;
4963;SDS011;2497;47.410;9.740;2022-08-25T00:57:03;5.60;;;3.20;;
4963;SDS011;2497;47.410;9.740;2022-08-25T00:59:32;3.70;;;3.10;;
4963;SDS011;2497;47.410;9.740;2022-08-25T01:02:00;9.13;;;3.60;;
4963;SDS011;2497;47.410;9.740;2022-08-25T01:04:29;4.97;;;3.40;;
4963;SDS011;2497;47.410;9.740;2022-08-25T01:06:56;5.87;;;3.57;;
4963;SDS011;2497;47.410;9.740;2022-08-25T01:09:25;5.87;;;2.97;;
4963;SDS011;2497;47.410;9.740;2022-08-25T01:11:55;6.60;;;3.20;;
4963;SDS011;2497;47.410;9.740;2022-08-25T01:14:24;8.20;;;3.10;;
4963;SDS011;2497;47.410;9.740;2022-08-25T01:16:55;5.77;;;3.73;;
4963;SDS011;2497;47.410;9.740;2022-08-25T01:19:23;7.17;;;3.63;;
4963;SDS011;2497;47.410;9.740;2022-08-25T01:21:54;6.50;;;3.30;;
4963;SDS011;2497;47.410;9.740;2022-08-25T01:24:24;7.53;;;3.07;;
4963;SDS011;2497;47.410;9.740;2022-08-25T01:26:56;11.87;;;6.40;;
4963;SDS011;2497;47.410;9.740;2022-08-25T01:29:24;5.77;;;4.50;;
4963;SDS011;2497;47.410;9.740;2022-08-25T01:31:53;4.23;;;3.30;;
4963;SDS011;2497;47.410;9.740;2022-08-25T01:34:23;5.10;;;3.73;;
4963;SDS011;2497;47.410;9.740;2022-08-25T01:36:54;4.40;;;3.70;;
4963;SDS011;2497;47.410;9.740;2022-08-25T01:39:23;6.97;;;3.63;;
4963;SDS011;2497;47.410;9.740;2022-08-25T01:44:58;7.73;;;4.17;;
4963;SDS011;2497;47.410;9.740;2022-08-25T01:47:25;5.90;;;3.93;;
4963;SDS011;2497;47.410;9.740;2022-08-25T01:49:53;7.70;;;4.40;;
4963;SDS011;2497;47.410;9.740;2022-08-25T01:52:28;5.60;;;3.77;;
4963;SDS011;2497;47.410;9.740;2022-08-25T01:54:58;5.20;;;3.70;;
4963;SDS011;2497;47.410;9.740;2022-08-25T01:57:27;4.43;;;3.83;;
4963;SDS011;2497;47.410;9.740;2022-08-25T01:59:55;8.43;;;3.47;;
4963;SDS011;2497;47.410;9.740;2022-08-25T02:02:23;6.00;;;3.83;;
4963;SDS011;2497;47.410;9.740;2022-08-25T02:04:50;4.87;;;4.00;;
4963;SDS011;2497;47.410;9.740;2022-08-25T02:07:18;7.80;;;4.17;;
4963;SDS011;2497;47.410;9.740;2022-08-25T02:09:48;3.97;;;3.00;;
4963;SDS011;2497;47.410;9.740;2022-08-25T02:12:15;5.23;;;3.57;;
4963;SDS011;2497;47.410;9.740;2022-08-25T02:14:42;6.20;;;3.73;;
4963;SDS011;2497;47.410;9.740;2022-08-25T02:17:10;5.10;;;4.30;;
4963;SDS011;2497;47.410;9.740;2022-08-25T02:19:37;5.83;;;3.77;;
4963;SDS011;2497;47.410;9.740;2022-08-25T02:22:04;6.83;;;3.13;;
4963;SDS011;2497;47.410;9.740;2022-08-25T02:24:32;6.20;;;3.60;;
4963;SDS011;2497;47.410;9.740;2022-08-25T02:27:02;5.30;;;3.30;;
4963;SDS011;2497;47.410;9.740;2022-08-25T02:29:29;4.80;;;3.03;;
4963;SDS011;2497;47.410;9.740;2022-08-25T02:31:56;13.83;;;4.10;;
4963;SDS011;2497;47.410;9.740;2022-08-25T02:34:24;5.43;;;3.83;;
4963;SDS011;2497;47.410;9.740;2022-08-25T02:36:51;7.30;;;4.17;;
4963;SDS011;2497;47.410;9.740;2022-08-25T02:39:18;4.70;;;2.97;;
4963;SDS011;2497;47.410;9.740;2022-08-25T02:41:46;4.57;;;3.70;;
4963;SDS011;2497;47.410;9.740;2022-08-25T02:44:21;5.63;;;3.40;;
4963;SDS011;2497;47.410;9.740;2022-08-25T02:46:48;4.27;;;3.53;;
4963;SDS011;2497;47.410;9.740;2022-08-25T02:49:15;7.70;;;3.77;;
4963;SDS011;2497;47.410;9.740;2022-08-25T02:51:43;4.57;;;3.20;;
4963;SDS011;2497;47.410;9.740;2022-08-25T02:54:10;5.73;;;4.20;;
4963;SDS011;2497;47.410;9.740;2022-08-25T02:56:38;5.53;;;3.30;;
4963;SDS011;2497;47.410;9.740;2022-08-25T02:59:06;5.53;;;4.07;;
4963;SDS011;2497;47.410;9.740;2022-08-25T03:01:36;4.00;;;3.33;;
4963;SDS011;2497;47.410;9.740;2022-08-25T03:04:04;5.77;;;3.90;;
4963;SDS011;2497;47.410;9.740;2022-08-25T03:06:31;3.60;;;3.30;;
4963;SDS011;2497;47.410;9.740;2022-08-25T03:08:59;5.00;;;3.60;;
4963;SDS011;2497;47.410;9.740;2022-08-25T03:11:26;8.37;;;3.83;;
4963;SDS011;2497;47.410;9.740;2022-08-25T03:13:54;7.07;;;3.90;;
4963;SDS011;2497;47.410;9.740;2022-08-25T03:16:22;4.40;;;3.57;;
4963;SDS011;2497;47.410;9.740;2022-08-25T03:18:51;4.60;;;3.70;;
4963;SDS011;2497;47.410;9.740;2022-08-25T03:21:18;6.40;;;3.47;;
4963;SDS011;2497;47.410;9.740;2022-08-25T03:23:46;5.03;;;3.63;;
4963;SDS011;2497;47.410;9.740;2022-08-25T03:26:13;6.57;;;4.40;;
4963;SDS011;2497;47.410;9.740;2022-08-25T03:28:57;4.87;;;3.90;;
4963;SDS011;2497;47.410;9.740;2022-08-25T03:31:29;9.10;;;3.87;;
4963;SDS011;2497;47.410;9.740;2022-08-25T03:33:59;4.50;;;3.63;;
4963;SDS011;2497;47.410;9.740;2022-08-25T03:36:26;6.87;;;4.20;;
4963;SDS011;2497;47.410;9.740;2022-08-25T03:38:54;7.00;;;4.07;;
4963;SDS011;2497;47.410;9.740;2022-08-25T03:41:22;6.03;;;3.53;;
4963;SDS011;2497;47.410;9.740;2022-08-25T03:43:55;5.57;;;4.37;;
4963;SDS011;2497;47.410;9.740;2022-08-25T03:46:24;5.60;;;4.17;;
4963;SDS011;2497;47.410;9.740;2022-08-25T03:48:52;4.73;;;4.23;;
4963;SDS011;2497;47.410;9.740;2022-08-25T03:51:22;5.27;;;3.70;;
4963;SDS011;2497;47.410;9.740;2022-08-25T03:53:52;5.40;;;4.10;;
4963;SDS011;2497;47.410;9.740;2022-08-25T03:56:20;4.43;;;3.30;;
4963;SDS011;2497;47.410;9.740;2022-08-25T03:58:48;6.30;;;3.50;;
4963;SDS011;2497;47.410;9.740;2022-08-25T04:01:16;5.53;;;4.07;;
4963;SDS011;2497;47.410;9.740;2022-08-25T04:03:43;5.23;;;3.67;;
4963;SDS011;2497;47.410;9.740;2022-08-25T04:06:11;6.00;;;3.60;;
4963;SDS011;2497;47.410;9.740;2022-08-25T04:08:41;6.30;;;4.30;;
4963;SDS011;2497;47.410;9.740;2022-08-25T04:11:09;4.00;;;3.53;;
4963;SDS011;2497;47.410;9.740;2022-08-25T04:13:39;5.00;;;4.00;;
4963;SDS011;2497;47.410;9.740;2022-08-25T04:16:09;6.40;;;4.23;;
4963;SDS011;2497;47.410;9.740;2022-08-25T04:18:38;10.50;;;4.20;;
4963;SDS011;2497;47.410;9.740;2022-08-25T04:21:06;6.67;;;4.60;;
4963;SDS011;2497;47.410;9.740;2022-08-25T04:23:34;6.90;;;3.90;;
4963;SDS011;2497;47.410;9.740;2022-08-25T04:26:08;7.47;;;4.50;;
4963;SDS011;2497;47.410;9.740;2022-08-25T04:28:36;7.63;;;4.63;;
4963;SDS011;2497;47.410;9.740;2022-08-25T04:31:04;5.20;;;3.87;;
4963;SDS011;2497;47.410;9.740;2022-08-25T04:33:33;6.57;;;4.60;;
4963;SDS011;2497;47.410;9.740;2022-08-25T04:36:01;9.40;;;4.60;;
4963;SDS011;2497;47.410;9.740;2022-08-25T04:38:28;6.37;;;4.33;;
4963;SDS011;2497;47.410;9.740;2022-08-25T04:40:57;6.30;;;4.67;;
4963;SDS011;2497;47.410;9.740;2022-08-25T04:43:28;7.27;;;4.67;;
4963;SDS011;2497;47.410;9.740;2022-08-25T04:45:55;17.33;;;4.43;;
4963;SDS011;2497;47.410;9.740;2022-08-25T04:48:26;5.80;;;4.27;;
4963;SDS011;2497;47.410;9.740;2022-08-25T04:50:54;4.77;;;3.80;;
4963;SDS011;2497;47.410;9.740;2022-08-25T04:53:21;6.87;;;4.40;;
4963;SDS011;2497;47.410;9.740;2022-08-25T04:55:48;6.53;;;4.40;;
4963;SDS011;2497;47.410;9.740;2022-08-25T04:58:16;4.73;;;3.63;;
4963;SDS011;2497;47.410;9.740;2022-08-25T05:00:45;6.17;;;3.93;;
4963;SDS011;2497;47.410;9.740;2022-08-25T05:03:12;8.23;;;4.40;;
4963;SDS011;2497;47.410;9.740;2022-08-25T05:05:41;5.60;;;4.27;;
4963;SDS011;2497;47.410;9.740;2022-08-25T05:08:08;9.37;;;4.50;;
4963;SDS011;2497;47.410;9.740;2022-08-25T05:10:38;9.20;;;3.90;;
4963;SDS011;2497;47.410;9.740;2022-08-25T05:13:07;9.67;;;4.57;;
4963;SDS011;2497;47.410;9.740;2022-08-25T05:15:34;6.53;;;4.83;;
4963;SDS011;2497;47.410;9.740;2022-08-25T05:18:19;10.27;;;5.90;;
4963;SDS011;2497;47.410;9.740;2022-08-25T05:20:48;13.13;;;6.40;;
4963;SDS011;2497;47.410;9.740;2022-08-25T05:23:16;11.47;;;7.87;;
4963;SDS011;2497;47.410;9.740;2022-08-25T05:25:44;6.53;;;5.53;;
4963;SDS011;2497;47.410;9.740;2022-08-25T05:28:11;14.70;;;5.80;;
4963;SDS011;2497;47.410;9.740;2022-08-25T05:30:39;10.50;;;5.53;;
4963;SDS011;2497;47.410;9.740;2022-08-25T05:33:07;17.30;;;6.37;;
4963;SDS011;2497;47.410;9.740;2022-08-25T05:35:37;12.20;;;6.30;;
4963;SDS011;2497;47.410;9.740;2022-08-25T05:38:05;10.87;;;5.30;;
4963;SDS011;2497;47.410;9.740;2022-08-25T05:40:32;10.10;;;5.40;;
4963;SDS011;2497;47.410;9.740;2022-08-25T05:43:01;5.87;;;4.30;;
4963;SDS011;2497;47.410;9.740;2022-08-25T05:45:28;11.03;;;4.73;;
4963;SDS011;2497;47.410;9.740;2022-08-25T05:47:56;8.93;;;4.70;;
4963;SDS011;2497;47.410;9.740;2022-08-25T05:50:23;8.07;;;4.07;;
4963;SDS011;2497;47.410;9.740;2022-08-25T05:52:53;10.03;;;3.97;;
4963;SDS011;2497;47.410;9.740;2022-08-25T05:55:20;5.17;;;4.00;;
4963;SDS011;2497;47.410;9.740;2022-08-25T05:57:48;9.20;;;4.50;;
4963;SDS011;2497;47.410;9.740;2022-08-25T06:00:16;6.13;;;4.20;;
4963;SDS011;2497;47.410;9.740;2022-08-25T06:02:44;8.17;;;4.63;;
4963;SDS011;2497;47.410;9.740;2022-08-25T06:05:13;8.77;;;5.00;;
4963;SDS011;2497;47.410;9.740;2022-08-25T06:07:43;7.70;;;4.93;;
4963;SDS011;2497;47.410;9.740;2022-08-25T06:10:12;7.40;;;4.53;;
4963;SDS011;2497;47.410;9.740;2022-08-25T06:12:40;7.10;;;4.13;;
4963;SDS011;2497;47.410;9.740;2022-08-25T06:15:10;5.50;;;4.83;;
4963;SDS011;2497;47.410;9.740;2022-08-25T06:17:39;14.30;;;5.97;;
4963;SDS011;2497;47.410;9.740;2022-08-25T06:20:08;18.43;;;5.60;;
4963;SDS011;2497;47.410;9.740;2022-08-25T06:22:38;10.10;;;6.23;;
4963;SDS011;2497;47.410;9.740;2022-08-25T06:25:05;10.80;;;6.20;;
4963;SDS011;2497;47.410;9.740;2022-08-25T06:27:35;10.07;;;5.50;;
4963;SDS011;2497;47.410;9.740;2022-08-25T06:30:03;10.17;;;4.80;;
4963;SDS011;2497;47.410;9.740;2022-08-25T06:32:32;5.60;;;4.37;;
4963;SDS011;2497;47.410;9.740;2022-08-25T06:35:00;5.03;;;4.40;;
4963;SDS011;2497;47.410;9.740;2022-08-25T06:37:28;9.80;;;4.97;;
4963;SDS011;2497;47.410;9.740;2022-08-25T06:39:55;6.43;;;4.37;;
4963;SDS011;2497;47.410;9.740;2022-08-25T06:42:23;4.70;;;3.80;;
4963;SDS011;2497;47.410;9.740;2022-08-25T06:44:52;10.10;;;4.73;;
4963;SDS011;2497;47.410;9.740;2022-08-25T06:47:20;4.97;;;3.93;;
4963;SDS011;2497;47.410;9.740;2022-08-25T06:49:47;6.93;;;4.53;;
4963;SDS011;2497;47.410;9.740;2022-08-25T06:52:16;5.23;;;4.17;;
4963;SDS011;2497;47.410;9.740;2022-08-25T06:54:44;5.73;;;4.53;;
4963;SDS011;2497;47.410;9.740;2022-08-25T06:57:12;6.40;;;4.20;;
4963;SDS011;2497;47.410;9.740;2022-08-25T06:59:39;4.97;;;4.47;;
4963;SDS011;2497;47.410;9.740;2022-08-25T07:02:08;7.63;;;4.50;;
4963;SDS011;2497;47.410;9.740;2022-08-25T07:04:36;8.83;;;4.37;;
4963;SDS011;2497;47.410;9.740;2022-08-25T07:07:04;6.33;;;4.23;;
4963;SDS011;2497;47.410;9.740;2022-08-25T07:09:31;7.47;;;4.63;;
4963;SDS011;2497;47.410;9.740;2022-08-25T07:12:00;5.53;;;3.73;;
4963;SDS011;2497;47.410;9.740;2022-08-25T07:14:29;6.07;;;4.40;;
4963;SDS011;2497;47.410;9.740;2022-08-25T07:16:56;9.97;;;3.90;;
4963;SDS011;2497;47.410;9.740;2022-08-25T07:19:25;5.60;;;4.27;;
4963;SDS011;2497;47.410;9.740;2022-08-25T07:21:54;5.20;;;4.07;;
4963;SDS011;2497;47.410;9.740;2022-08-25T07:24:21;6.30;;;3.90;;
4963;SDS011;2497;47.410;9.740;2022-08-25T07:26:49;5.50;;;4.17;;
4963;SDS011;2497;47.410;9.740;2022-08-25T07:29:18;6.77;;;3.77;;
4963;SDS011;2497;47.410;9.740;2022-08-25T07:31:47;4.37;;;3.73;;
4963;SDS011;2497;47.410;9.740;2022-08-25T07:34:15;4.57;;;4.13;;
4963;SDS011;2497;47.410;9.740;2022-08-25T07:37:01;5.23;;;3.70;;
4963;SDS011;2497;47.410;9.740;2022-08-25T07:39:29;5.93;;;3.60;;
4963;SDS011;2497;47.410;9.740;2022-08-25T07:41:58;4.63;;;4.13;;
4963;SDS011;2497;47.410;9.740;2022-08-25T07:44:26;5.53;;;3.73;;
4963;SDS011;2497;47.410;9.740;2022-08-25T07:46:53;6.73;;;4.23;;
4963;SDS011;2497;47.410;9.740;2022-08-25T07:49:22;6.70;;;4.60;;
4963;SDS011;2497;47.410;9.740;2022-08-25T07:51:51;6.90;;;3.70;;
4963;SDS011;2497;47.410;9.740;2022-08-25T07:54:20;5.53;;;3.67;;
4963;SDS011;2497;47.410;9.740;2022-08-25T07:56:49;7.00;;;4.00;;
4963;SDS011;2497;47.410;9.740;2022-08-25T07:59:17;4.17;;;3.47;;
4963;SDS011;2497;47.410;9.740;2022-08-25T08:01:44;5.80;;;4.20;;
4963;SDS011;2497;47.410;9.740;2022-08-25T08:04:11;6.53;;;4.03;;
4963;SDS011;2497;47.410;9.740;2022-08-25T08:06:38;7.10;;;4.60;;
4963;SDS011;2497;47.410;9.740;2022-08-25T08:09:06;8.10;;;4.20;;
4963;SDS011;2497;47.410;9.740;2022-08-25T08:11:35;5.80;;;4.07;;
4963;SDS011;2497;47.410;9.740;2022-08-25T08:14:05;5.60;;;3.80;;
4963;SDS011;2497;47.410;9.740;2022-08-25T08:16:33;5.77;;;4.07;;
4963;SDS011;2497;47.410;9.740;2022-08-25T08:19:01;6.27;;;4.10;;
4963;SDS011;2497;47.410;9.740;2022-08-25T08:21:31;11.27;;;4.97;;
4963;SDS011;2497;47.410;9.740;2022-08-25T08:23:59;7.80;;;3.90;;
4963;SDS011;2497;47.410;9.740;2022-08-25T08:26:27;9.67;;;4.27;;
4963;SDS011;2497;47.410;9.740;2022-08-25T08:28:56;10.07;;;3.97;;
4963;SDS011;2497;47.410;9.740;2022-08-25T08:31:24;5.23;;;3.77;;
4963;SDS011;2497;47.410;9.740;2022-08-25T08:33:53;6.73;;;3.53;;
4963;SDS011;2497;47.410;9.740;2022-08-25T08:36:21;4.83;;;3.50;;
4963;SDS011;2497;47.410;9.740;2022-08-25T08:38:49;9.33;;;4.17;;
4963;SDS011;2497;47.410;9.740;2022-08-25T08:41:27;7.27;;;4.13;;
4963;SDS011;2497;47.410;9.740;2022-08-25T08:44:40;6.77;;;4.73;;
4963;SDS011;2497;47.410;9.740;2022-08-25T08:47:16;8.83;;;4.17;;
4963;SDS011;2497;47.410;9.740;2022-08-25T08:49:54;6.10;;;3.53;;
4963;SDS011;2497;47.410;9.740;2022-08-25T08:52:32;5.03;;;4.30;;
4963;SDS011;2497;47.410;9.740;2022-08-25T08:55:09;6.03;;;4.10;;
4963;SDS011;2497;47.410;9.740;2022-08-25T08:58:04;4.63;;;3.50;;
4963;SDS011;2497;47.410;9.740;2022-08-25T09:00:43;3.30;;;3.00;;
4963;SDS011;2497;47.410;9.740;2022-08-25T09:03:15;4.13;;;3.73;;
4963;SDS011;2497;47.410;9.740;2022-08-25T09:05:54;5.03;;;3.73;;
4963;SDS011;2497;47.410;9.740;2022-08-25T09:08:24;6.80;;;3.73;;
4963;SDS011;2497;47.410;9.740;2022-08-25T09:10:54;5.57;;;4.03;;
4963;SDS011;2497;47.410;9.740;2022-08-25T09:13:31;4.60;;;3.67;;
4963;SDS011;2497;47.410;9.740;2022-08-25T09:16:12;4.60;;;3.40;;
4963;SDS011;2497;47.410;9.740;2022-08-25T09:19:06;6.40;;;4.10;;
4963;SDS011;2497;47.410;9.740;2022-08-25T09:21:44;4.10;;;3.30;;
4963;SDS011;2497;47.410;9.740;2022-08-25T09:24:21;4.63;;;3.80;;
4963;SDS011;2497;47.410;9.740;2022-08-25T09:27:05;3.90;;;3.17;;
4963;SDS011;2497;47.410;9.740;2022-08-25T09:29:46;4.40;;;3.47;;
4963;SDS011;2497;47.410;9.740;2022-08-25T09:32:26;7.93;;;3.50;;
4963;SDS011;2497;47.410;9.740;2022-08-25T09:34:56;9.70;;;3.67;;
4963;SDS011;2497;47.410;9.740;2022-08-25T09:37:26;5.90;;;3.93;;
4963;SDS011;2497;47.410;9.740;2022-08-25T09:39:54;3.90;;;3.47;;
4963;SDS011;2497;47.410;9.740;2022-08-25T09:42:21;11.50;;;4.47;;
4963;SDS011;2497;47.410;9.740;2022-08-25T09:45:14;6.00;;;4.13;;
4963;SDS011;2497;47.410;9.740;2022-08-25T09:47:43;5.37;;;3.17;;
4963;SDS011;2497;47.410;9.740;2022-08-25T09:50:13;10.83;;;3.93;;
4963;SDS011;2497;47.410;9.740;2022-08-25T09:52:43;4.50;;;3.67;;
4963;SDS011;2497;47.410;9.740;2022-08-25T09:55:28;4.40;;;3.37;;
4963;SDS011;2497;47.410;9.740;2022-08-25T09:57:58;9.27;;;3.83;;
4963;SDS011;2497;47.410;9.740;2022-08-25T10:00:26;6.90;;;3.83;;
4963;SDS011;2497;47.410;9.740;2022-08-25T10:09:03;5.37;;;4.40;;
4963;SDS011;2497;47.410;9.740;2022-08-25T10:11:36;5.47;;;3.93;;
4963;SDS011;2497;47.410;9.740;2022-08-25T10:14:14;5.00;;;3.80;;
4963;SDS011;2497;47.410;9.740;2022-08-25T10:16:44;5.87;;;4.00;;
4963;SDS011;2497;47.410;9.740;2022-08-25T10:19:13;4.70;;;3.97;;
4963;SDS011;2497;47.410;9.740;2022-08-25T10:24:49;6.00;;;4.33;;
4963;SDS011;2497;47.410;9.740;2022-08-25T10:27:34;3.80;;;3.40;;
4963;SDS011;2497;47.410;9.740;2022-08-25T10:30:07;5.30;;;3.70;;
4963;SDS011;2497;47.410;9.740;2022-08-25T10:32:56;9.23;;;4.10;;
4963;SDS011;2497;47.410;9.740;2022-08-25T10:35:49;7.30;;;4.40;;
4963;SDS011;2497;47.410;9.740;2022-08-25T10:38:28;6.03;;;3.93;;
4963;SDS011;2497;47.410;9.740;2022-08-25T10:41:05;5.50;;;3.90;;
4963;SDS011;2497;47.410;9.740;2022-08-25T10:43:52;4.83;;;3.83;;
4963;SDS011;2497;47.410;9.740;2022-08-25T10:46:30;8.83;;;4.03;;
4963;SDS011;2497;47.410;9.740;2022-08-25T10:49:06;4.77;;;4.23;;
4963;SDS011;2497;47.410;9.740;2022-08-25T10:51:42;9.10;;;4.00;;
4963;SDS011;2497;47.410;9.740;2022-08-25T10:54:29;5.47;;;4.10;;
4963;SDS011;2497;47.410;9.740;2022-08-25T10:57:09;4.07;;;3.50;;
4963;SDS011;2497;47.410;9.740;2022-08-25T10:59:51;4.33;;;3.60;;
4963;SDS011;2497;47.410;9.740;2022-08-25T11:05:37;4.20;;;3.80;;
4963;SDS011;2497;47.410;9.740;2022-08-25T11:08:09;7.87;;;4.47;;
4963;SDS011;2497;47.410;9.740;2022-08-25T11:10:43;4.40;;;3.70;;
4963;SDS011;2497;47.410;9.740;2022-08-25T11:13:17;4.97;;;4.10;;
4963;SDS011;2497;47.410;9.740;2022-08-25T11:15:51;7.13;;;4.27;;
4963;SDS011;2497;47.410;9.740;2022-08-25T11:18:21;7.90;;;4.87;;
4963;SDS011;2497;47.410;9.740;2022-08-25T11:20:58;5.67;;;4.27;;
4963;SDS011;2497;47.410;9.740;2022-08-25T11:23:34;6.87;;;4.30;;
4963;SDS011;2497;47.410;9.740;2022-08-25T11:26:07;7.73;;;4.67;;
4963;SDS011;2497;47.410;9.740;2022-08-25T11:28:43;6.43;;;4.67;;
4963;SDS011;2497;47.410;9.740;2022-08-25T11:31:18;5.70;;;4.50;;
4963;SDS011;2497;47.410;9.740;2022-08-25T11:33:47;9.27;;;4.20;;
4963;SDS011;2497;47.410;9.740;2022-08-25T11:36:18;5.80;;;4.40;;
4963;SDS011;2497;47.410;9.740;2022-08-25T11:38:52;5.90;;;4.60;;
4963;SDS011;2497;47.410;9.740;2022-08-25T11:41:34;6.77;;;4.90;;
4963;SDS011;2497;47.410;9.740;2022-08-25T11:44:34;10.93;;;4.77;;
4963;SDS011;2497;47.410;9.740;2022-08-25T11:47:18;9.77;;;4.87;;
4963;SDS011;2497;47.410;9.740;2022-08-25T11:50:00;5.73;;;4.50;;
4963;SDS011;2497;47.410;9.740;2022-08-25T11:55:19;7.70;;;4.80;;
4963;SDS011;2497;47.410;9.740;2022-08-25T11:58:12;5.10;;;4.40;;
4963;SDS011;2497;47.410;9.740;2022-08-25T12:00:50;5.73;;;4.33;;
4963;SDS011;2497;47.410;9.740;2022-08-25T12:06:17;4.97;;;4.47;;
4963;SDS011;2497;47.410;9.740;2022-08-25T12:08:50;5.20;;;4.30;;
4963;SDS011;2497;47.410;9.740;2022-08-25T12:11:54;6.63;;;5.07;;
4963;SDS011;2497;47.410;9.740;2022-08-25T12:14:37;6.83;;;5.00;;
4963;SDS011;2497;47.410;9.740;2022-08-25T12:17:16;5.33;;;4.50;;
4963;SDS011;2497;47.410;9.740;2022-08-25T12:19:49;5.40;;;3.97;;
4963;SDS011;2497;47.410;9.740;2022-08-25T12:22:39;5.57;;;4.80;;
4963;SDS011;2497;47.410;9.740;2022-08-25T12:25:20;5.70;;;4.23;;
4963;SDS011;2497;47.410;9.740;2022-08-25T12:28:06;4.83;;;4.03;;
4963;SDS011;2497;47.410;9.740;2022-08-25T12:31:02;6.03;;;4.10;;
4963;SDS011;2497;47.410;9.740;2022-08-25T12:33:38;5.93;;;4.17;;
4963;SDS011;2497;47.410;9.740;2022-08-25T12:36:23;12.00;;;4.33;;
4963;SDS011;2497;47.410;9.740;2022-08-25T12:38:53;5.20;;;4.03;;
4963;SDS011;2497;47.410;9.740;2022-08-25T12:41:20;10.67;;;4.07;;
4963;SDS011;2497;47.410;9.740;2022-08-25T12:43:51;5.50;;;4.07;;
4963;SDS011;2497;47.410;9.740;2022-08-25T12:46:34;5.20;;;3.80;;
4963;SDS011;2497;47.410;9.740;2022-08-25T12:49:04;9.50;;;3.97;;
4963;SDS011;2497;47.410;9.740;2022-08-25T12:51:55;4.83;;;4.30;;
4963;SDS011;2497;47.410;9.740;2022-08-25T12:54:31;4.77;;;4.20;;
4963;SDS011;2497;47.410;9.740;2022-08-25T12:57:14;4.13;;;3.73;;
4963;SDS011;2497;47.410;9.740;2022-08-25T12:59:56;4.63;;;3.83;;
4963;SDS011;2497;47.410;9.740;2022-08-25T13:02:39;5.80;;;4.10;;
4963;SDS011;2497;47.410;9.740;2022-08-25T13:11:34;5.00;;;4.00;;
4963;SDS011;2497;47.410;9.740;2022-08-25T13:14:11;5.70;;;4.60;;
4963;SDS011;2497;47.410;9.740;2022-08-25T13:16:52;4.70;;;3.97;;
4963;SDS011;2497;47.410;9.740;2022-08-25T13:19:20;5.60;;;4.20;;
4963;SDS011;2497;47.410;9.740;2022-08-25T13:21:48;5.90;;;4.20;;
4963;SDS011;2497;47.410;9.740;2022-08-25T13:24:17;5.40;;;4.40;;
4963;SDS011;2497;47.410;9.740;2022-08-25T13:26:49;4.80;;;4.30;;
4963;SDS011;2497;47.410;9.740;2022-08-25T13:29:21;9.33;;;4.77;;
4963;SDS011;2497;47.410;9.740;2022-08-25T13:31:53;7.50;;;4.37;;
4963;SDS011;2497;47.410;9.740;2022-08-25T13:34:24;5.43;;;4.20;;
4963;SDS011;2497;47.410;9.740;2022-08-25T13:36:54;5.53;;;3.40;;
4963;SDS011;2497;47.410;9.740;2022-08-25T13:39:39;4.30;;;3.90;;
4963;SDS011;2497;47.410;9.740;2022-08-25T13:42:11;4.83;;;3.50;;
4963;SDS011;2497;47.410;9.740;2022-08-25T13:44:40;6.67;;;4.10;;
4963;SDS011;2497;47.410;9.740;2022-08-25T13:47:11;6.10;;;4.23;;
4963;SDS011;2497;47.410;9.740;2022-08-25T13:49:40;6.00;;;3.83;;
4963;SDS011;2497;47.410;9.740;2022-08-25T13:52:14;8.70;;;4.03;;
4963;SDS011;2497;47.410;9.740;2022-08-25T13:54:50;3.80;;;3.40;;
4963;SDS011;2497;47.410;9.740;2022-08-25T13:57:24;5.23;;;4.00;;
4963;SDS011;2497;47.410;9.740;2022-08-25T13:59:54;8.43;;;3.43;;
4963;SDS011;2497;47.410;9.740;2022-08-25T14:05:11;3.50;;;3.20;;
4963;SDS011;2497;47.410;9.740;2022-08-25T14:07:51;9.50;;;4.07;;
4963;SDS011;2497;47.410;9.740;2022-08-25T14:10:36;4.67;;;3.70;;
4963;SDS011;2497;47.410;9.740;2022-08-25T14:13:13;4.70;;;3.60;;
4963;SDS011;2497;47.410;9.740;2022-08-25T14:15:43;7.43;;;4.10;;
4963;SDS011;2497;47.410;9.740;2022-08-25T14:18:16;4.07;;;3.50;;
4963;SDS011;2497;47.410;9.740;2022-08-25T14:20:47;6.10;;;4.60;;
4963;SDS011;2497;47.410;9.740;2022-08-25T14:23:21;6.90;;;4.57;;
4963;SDS011;2497;47.410;9.740;2022-08-25T14:25:56;5.03;;;3.90;;
4963;SDS011;2497;47.410;9.740;2022-08-25T14:28:25;5.03;;;4.10;;
4963;SDS011;2497;47.410;9.740;2022-08-25T14:30:55;4.33;;;3.73;;
4963;SDS011;2497;47.410;9.740;2022-08-25T14:33:36;7.20;;;3.90;;
4963;SDS011;2497;47.410;9.740;2022-08-25T14:36:07;6.37;;;3.40;;
4963;SDS011;2497;47.410;9.740;2022-08-25T14:38:36;4.13;;;3.57;;
4963;SDS011;2497;47.410;9.740;2022-08-25T14:41:04;7.47;;;4.20;;
4963;SDS011;2497;47.410;9.740;2022-08-25T14:43:32;6.77;;;3.47;;
4963;SDS011;2497;47.410;9.740;2022-08-25T14:46:06;9.73;;;4.10;;
4963;SDS011;2497;47.410;9.740;2022-08-25T14:48:41;5.07;;;4.10;;
4963;SDS011;2497;47.410;9.740;2022-08-25T14:51:11;8.43;;;4.17;;
4963;SDS011;2497;47.410;9.740;2022-08-25T14:53:40;6.17;;;4.13;;
4963;SDS011;2497;47.410;9.740;2022-08-25T14:56:10;6.23;;;4.30;;
4963;SDS011;2497;47.410;9.740;2022-08-25T14:58:38;5.50;;;3.50;;
4963;SDS011;2497;47.410;9.740;2022-08-25T15:01:07;4.23;;;3.60;;
4963;SDS011;2497;47.410;9.740;2022-08-25T15:03:42;4.13;;;3.50;;
4963;SDS011;2497;47.410;9.740;2022-08-25T15:06:13;5.70;;;3.73;;
4963;SDS011;2497;47.410;9.740;2022-08-25T15:08:42;14.27;;;3.87;;
4963;SDS011;2497;47.410;9.740;2022-08-25T15:11:39;7.63;;;3.50;;
4963;SDS011;2497;47.410;9.740;2022-08-25T15:14:09;5.37;;;3.40;;
4963;SDS011;2497;47.410;9.740;2022-08-25T15:16:40;5.17;;;3.70;;
4963;SDS011;2497;47.410;9.740;2022-08-25T15:19:12;5.20;;;3.70;;
4963;SDS011;2497;47.410;9.740;2022-08-25T15:21:42;5.40;;;3.90;;
4963;SDS011;2497;47.410;9.740;2022-08-25T15:24:11;8.20;;;4.17;;
4963;SDS011;2497;47.410;9.740;2022-08-25T15:26:41;3.70;;;3.30;;
4963;SDS011;2497;47.410;9.740;2022-08-25T15:29:11;3.93;;;3.50;;
4963;SDS011;2497;47.410;9.740;2022-08-25T15:31:39;5.70;;;3.47;;
4963;SDS011;2497;47.410;9.740;2022-08-25T15:34:06;4.07;;;3.67;;
4963;SDS011;2497;47.410;9.740;2022-08-25T15:36:35;7.90;;;4.27;;
4963;SDS011;2497;47.410;9.740;2022-08-25T15:39:04;3.90;;;3.53;;
4963;SDS011;2497;47.410;9.740;2022-08-25T15:41:31;3.70;;;3.33;;
4963;SDS011;2497;47.410;9.740;2022-08-25T15:43:59;6.63;;;3.60;;
4963;SDS011;2497;47.410;9.740;2022-08-25T15:46:27;10.57;;;3.97;;
4963;SDS011;2497;47.410;9.740;2022-08-25T15:48:55;7.40;;;4.57;;
4963;SDS011;2497;47.410;9.740;2022-08-25T15:51:23;5.83;;;3.60;;
4963;SDS011;2497;47.410;9.740;2022-08-25T15:53:53;5.73;;;3.93;;
4963;SDS011;2497;47.410;9.740;2022-08-25T15:56:20;7.07;;;3.60;;
4963;SDS011;2497;47.410;9.740;2022-08-25T15:58:48;7.43;;;4.13;;
4963;SDS011;2497;47.410;9.740;2022-08-25T16:01:17;4.23;;;3.83;;
4963;SDS011;2497;47.410;9.740;2022-08-25T16:04:06;7.53;;;4.07;;
4963;SDS011;2497;47.410;9.740;2022-08-25T16:06:34;4.33;;;3.93;;
4963;SDS011;2497;47.410;9.740;2022-08-25T16:09:03;5.97;;;4.60;;
4963;SDS011;2497;47.410;9.740;2022-08-25T16:11:31;11.17;;;4.27;;
4963;SDS011;2497;47.410;9.740;2022-08-25T16:13:59;5.13;;;3.80;;